createdAt,value
2023-06-17T00:00:43.180Z,6.50
2023-06-17T00:03:10.041Z,7.30
2023-06-17T00:05:37.262Z,7.78
2023-06-17T00:08:03.884Z,6.50
2023-06-17T00:10:30.405Z,6.85
2023-06-17T00:12:56.829Z,7.35
2023-06-17T00:15:23.889Z,6.50
2023-06-17T00:17:51.136Z,6.57
2023-06-17T00:20:17.942Z,6.13
2023-06-17T00:22:45.920Z,7.60
2023-06-17T00:25:15.518Z,6.63
2023-06-17T00:27:45.642Z,7.03
2023-06-17T00:30:14.817Z,6.93
2023-06-17T00:32:42.005Z,6.65
2023-06-17T00:35:09.184Z,6.50
2023-06-17T00:37:35.764Z,6.93
2023-06-17T00:40:07.002Z,7.13
2023-06-17T00:42:33.447Z,6.70
2023-06-17T00:44:59.892Z,6.43
2023-06-17T00:47:26.522Z,6.60
2023-06-17T00:49:54.588Z,6.88
2023-06-17T00:52:39.423Z,6.97
2023-06-17T00:55:09.913Z,6.78
2023-06-17T00:57:36.819Z,6.90
2023-06-17T01:00:06.527Z,6.95
2023-06-17T01:02:33.252Z,6.32
2023-06-17T01:05:02.429Z,7.25
2023-06-17T01:10:19.513Z,7.47
2023-06-17T01:12:48.810Z,7.50
2023-06-17T01:15:17.639Z,7.32
2023-06-17T01:17:47.434Z,7.60
2023-06-17T01:20:14.742Z,7.53
2023-06-17T01:22:42.558Z,7.53
2023-06-17T01:25:10.638Z,7.90
2023-06-17T01:27:37.107Z,7.55
2023-06-17T01:30:04.041Z,7.55
2023-06-17T01:32:30.878Z,6.63
2023-06-17T01:35:04.506Z,7.82
2023-06-17T01:37:44.450Z,7.68
2023-06-17T01:40:14.514Z,8.50
2023-06-17T01:42:46.443Z,8.20
2023-06-17T01:45:13.731Z,8.73
2023-06-17T01:47:40.535Z,8.27
2023-06-17T01:50:07.901Z,8.32
2023-06-17T01:52:34.959Z,8.38
2023-06-17T01:55:02.355Z,8.80
2023-06-17T01:57:29.156Z,8.50
2023-06-17T01:59:56.816Z,8.65
2023-06-17T02:02:24.389Z,9.00
2023-06-17T02:04:51.985Z,8.63
2023-06-17T02:07:18.785Z,8.88
2023-06-17T02:09:46.565Z,8.15
2023-06-17T02:12:14.386Z,8.35
2023-06-17T02:14:40.919Z,8.15
2023-06-17T02:17:09.443Z,8.02
2023-06-17T02:19:36.774Z,8.57
2023-06-17T02:22:04.906Z,7.55
2023-06-17T02:24:31.818Z,8.55
2023-06-17T02:26:58.814Z,8.43
2023-06-17T02:29:26.587Z,8.90
2023-06-17T02:31:53.198Z,8.60
2023-06-17T02:34:20.308Z,7.78
2023-06-17T02:36:47.681Z,8.90
2023-06-17T02:39:14.242Z,7.85
2023-06-17T02:41:43.606Z,8.02
2023-06-17T02:44:09.988Z,8.68
2023-06-17T02:46:37.002Z,9.40
2023-06-17T02:49:03.481Z,9.43
2023-06-17T02:51:30.256Z,8.85
2023-06-17T02:53:56.653Z,8.23
2023-06-17T02:56:23.551Z,8.73
2023-06-17T02:58:50.480Z,9.00
2023-06-17T03:01:18.058Z,8.88
2023-06-17T03:03:46.275Z,9.15
2023-06-17T03:06:16.708Z,9.27
2023-06-17T03:08:43.140Z,9.07
2023-06-17T03:11:12.180Z,8.77
2023-06-17T03:13:38.678Z,9.18
2023-06-17T03:16:06.453Z,8.95
2023-06-17T03:18:33.024Z,8.85
2023-06-17T03:20:59.658Z,8.90
2023-06-17T03:23:26.203Z,8.73
2023-06-17T03:25:56.085Z,9.32
2023-06-17T03:28:22.551Z,9.30
2023-06-17T03:30:49.197Z,10.02
2023-06-17T03:33:15.788Z,9.63
2023-06-17T03:35:42.367Z,9.02
2023-06-17T03:38:10.160Z,8.60
2023-06-17T03:40:37.596Z,9.30
2023-06-17T03:43:04.047Z,9.43
2023-06-17T03:45:31.804Z,8.82
2023-06-17T03:47:59.346Z,9.95
2023-06-17T03:50:28.559Z,9.48
2023-06-17T03:52:55.374Z,9.57
2023-06-17T03:55:23.660Z,9.32
2023-06-17T03:57:51.049Z,8.85
2023-06-17T04:00:20.052Z,9.43
2023-06-17T04:02:48.776Z,9.10
2023-06-17T04:05:16.601Z,9.13
2023-06-17T04:07:43.480Z,8.52
2023-06-17T04:10:10.531Z,8.90
2023-06-17T04:12:38.514Z,8.75
2023-06-17T04:15:08.719Z,9.63
2023-06-17T04:17:38.679Z,9.25
2023-06-17T04:20:14.550Z,8.70
2023-06-17T04:22:44.645Z,8.55
2023-06-17T04:25:12.272Z,8.82
2023-06-17T04:27:41.824Z,8.30
2023-06-17T04:30:10.004Z,9.23
2023-06-17T04:32:40.072Z,9.05
2023-06-17T04:35:07.569Z,8.90
2023-06-17T04:37:35.763Z,8.20
2023-06-17T04:40:05.205Z,8.77
2023-06-17T04:42:34.623Z,8.38
2023-06-17T04:45:02.034Z,8.43
2023-06-17T04:47:29.922Z,8.32
2023-06-17T04:49:56.982Z,7.47
2023-06-17T04:52:26.018Z,7.97
2023-06-17T04:54:52.755Z,7.82
2023-06-17T04:57:19.642Z,8.27
2023-06-17T04:59:46.270Z,7.68
2023-06-17T05:02:14.775Z,7.72
2023-06-17T05:04:43.939Z,7.57
2023-06-17T05:07:10.449Z,7.43
2023-06-17T05:09:36.891Z,7.72
2023-06-17T05:12:03.578Z,6.93
2023-06-17T05:14:30.068Z,6.88
2023-06-17T05:16:59.163Z,7.03
2023-06-17T05:19:25.815Z,7.13
2023-06-17T05:21:52.233Z,7.07
2023-06-17T05:24:18.828Z,7.45
2023-06-17T05:26:50.438Z,8.02
2023-06-17T05:29:16.992Z,8.00
2023-06-17T05:31:43.391Z,7.25
2023-06-17T05:34:09.879Z,8.43
2023-06-17T05:36:36.312Z,8.10
2023-06-17T05:39:03.001Z,8.02
2023-06-17T05:41:32.044Z,8.98
2023-06-17T05:43:58.486Z,8.45
2023-06-17T05:46:25.023Z,8.55
2023-06-17T05:48:51.667Z,8.40
2023-06-17T05:51:18.301Z,8.07
2023-06-17T05:53:46.843Z,8.52
2023-06-17T05:56:13.761Z,7.70
2023-06-17T05:58:40.417Z,7.80
2023-06-17T06:01:09.877Z,7.70
2023-06-17T06:03:36.446Z,7.63
2023-06-17T06:06:03.115Z,7.35
2023-06-17T06:08:30.236Z,7.55
2023-06-17T06:10:56.702Z,7.75
2023-06-17T06:13:23.261Z,8.13
2023-06-17T06:15:53.060Z,7.47
2023-06-17T06:18:19.474Z,7.00
2023-06-17T06:20:48.601Z,7.18
2023-06-17T06:23:14.988Z,7.13
2023-06-17T06:25:42.810Z,7.60
2023-06-17T06:28:09.452Z,7.47
2023-06-17T06:30:36.604Z,7.72
2023-06-17T06:33:03.282Z,8.38
2023-06-17T06:35:32.749Z,7.88
2023-06-17T06:37:59.125Z,8.10
2023-06-17T06:40:25.537Z,8.10
2023-06-17T06:42:52.040Z,8.95
2023-06-17T06:45:18.582Z,8.48
2023-06-17T06:47:45.031Z,10.27
2023-06-17T06:50:11.584Z,9.07
2023-06-17T06:52:38.193Z,10.15
2023-06-17T06:55:05.024Z,9.70
2023-06-17T06:57:31.581Z,8.95
2023-06-17T07:00:10.614Z,8.93
2023-06-17T07:02:37.535Z,9.88
2023-06-17T07:05:07.105Z,9.68
2023-06-17T07:07:34.109Z,10.32
2023-06-17T07:10:00.767Z,8.45
2023-06-17T07:12:27.503Z,9.88
2023-06-17T07:14:54.108Z,9.35
2023-06-17T07:17:20.892Z,9.38
2023-06-17T07:19:47.780Z,9.15
2023-06-17T07:22:14.452Z,9.27
2023-06-17T07:24:41.152Z,9.30
2023-06-17T07:27:07.714Z,8.23
2023-06-17T07:29:34.230Z,8.50
2023-06-17T07:32:01.117Z,8.48
2023-06-17T07:34:29.925Z,9.07
2023-06-17T07:36:56.804Z,9.18
2023-06-17T07:39:23.281Z,8.77
2023-06-17T07:41:57.620Z,9.18
2023-06-17T07:44:24.080Z,8.82
2023-06-17T07:46:50.572Z,8.63
2023-06-17T07:49:17.404Z,8.55
2023-06-17T07:51:46.978Z,8.90
2023-06-17T07:54:16.971Z,8.98
2023-06-17T07:56:43.528Z,9.15
2023-06-17T07:59:12.729Z,9.38
2023-06-17T08:01:40.187Z,8.88
2023-06-17T08:04:06.678Z,8.65
2023-06-17T08:06:33.131Z,9.13
2023-06-17T08:08:59.826Z,9.05
2023-06-17T08:11:26.349Z,8.57
2023-06-17T08:13:52.850Z,8.85
2023-06-17T08:16:19.401Z,8.70
2023-06-17T08:18:45.994Z,9.07
2023-06-17T08:21:12.469Z,9.13
2023-06-17T08:23:39.313Z,10.32
2023-06-17T08:26:05.940Z,9.05
2023-06-17T08:28:32.572Z,9.23
2023-06-17T08:30:59.233Z,9.60
2023-06-17T08:33:26.386Z,8.27
2023-06-17T08:35:52.958Z,8.00
2023-06-17T08:38:22.469Z,9.50
2023-06-17T08:40:51.187Z,8.50
2023-06-17T08:43:19.291Z,7.85
2023-06-17T08:45:50.832Z,10.30
2023-06-17T08:48:17.969Z,10.10
2023-06-17T08:50:47.061Z,8.73
2023-06-17T08:53:15.362Z,9.00
2023-06-17T08:55:42.914Z,7.85
2023-06-17T08:58:09.685Z,7.15
2023-06-17T09:00:36.697Z,7.75
2023-06-17T09:03:08.145Z,7.45
2023-06-17T09:05:36.250Z,8.35
2023-06-17T09:08:02.980Z,7.22
2023-06-17T09:10:29.920Z,7.07
2023-06-17T09:13:00.319Z,6.18
2023-06-17T09:15:27.134Z,6.95
2023-06-17T09:17:55.916Z,7.53
2023-06-17T09:20:24.368Z,7.43
2023-06-17T09:22:51.869Z,7.55
2023-06-17T09:25:19.638Z,6.80
2023-06-17T09:28:11.717Z,6.50
2023-06-17T09:30:43.149Z,5.47
2023-06-17T09:33:23.067Z,4.82
2023-06-17T09:36:02.660Z,5.47
2023-06-17T09:38:29.293Z,5.40
2023-06-17T09:40:57.532Z,5.68
2023-06-17T09:43:29.243Z,5.60
2023-06-17T09:46:00.641Z,5.57
2023-06-17T09:48:34.762Z,5.03
2023-06-17T09:51:01.695Z,5.00
2023-06-17T09:53:30.518Z,4.93
2023-06-17T09:55:59.561Z,4.80
2023-06-17T09:58:33.250Z,4.88
2023-06-17T10:01:01.799Z,4.63
2023-06-17T10:03:29.015Z,5.03
2023-06-17T10:06:01.396Z,4.45
2023-06-17T10:08:30.172Z,5.35
2023-06-17T10:11:02.899Z,4.95
2023-06-17T10:13:32.718Z,5.20
2023-06-17T10:16:03.301Z,4.40
2023-06-17T10:18:34.136Z,4.90
2023-06-17T10:21:03.199Z,4.40
2023-06-17T10:23:31.515Z,5.57
2023-06-17T10:25:58.080Z,4.82
2023-06-17T10:28:24.521Z,4.80
2023-06-17T10:30:53.849Z,4.53
2023-06-17T10:33:28.680Z,4.70
2023-06-17T10:36:08.000Z,4.68
2023-06-17T10:38:35.322Z,4.68
2023-06-17T10:41:02.633Z,4.50
2023-06-17T10:43:37.451Z,4.38
2023-06-17T10:46:06.278Z,5.30
2023-06-17T10:48:34.142Z,4.40
2023-06-17T10:51:04.841Z,4.68
2023-06-17T10:53:39.039Z,4.65
2023-06-17T10:56:07.909Z,4.75
2023-06-17T10:58:38.954Z,4.90
2023-06-17T11:01:10.820Z,4.95
2023-06-17T11:03:37.450Z,4.70
2023-06-17T11:06:06.236Z,5.38
2023-06-17T11:08:35.180Z,4.93
2023-06-17T11:11:16.178Z,4.47
2023-06-17T11:16:11.289Z,5.43
2023-06-17T11:18:40.153Z,4.70
2023-06-17T11:21:10.548Z,4.82
2023-06-17T11:23:39.842Z,4.90
2023-06-17T11:26:08.464Z,4.97
2023-06-17T11:28:40.695Z,4.78
2023-06-17T11:31:08.997Z,4.93
2023-06-17T11:33:39.444Z,5.50
2023-06-17T11:36:10.738Z,5.63
2023-06-17T11:38:37.749Z,4.90
2023-06-17T11:41:04.513Z,4.85
2023-06-17T11:43:35.621Z,4.60
2023-06-17T11:46:03.644Z,5.35
2023-06-17T11:48:34.386Z,4.85
2023-06-17T11:51:01.012Z,4.82
2023-06-17T11:53:38.539Z,4.80
2023-06-17T11:56:09.417Z,5.13
2023-06-17T11:58:41.101Z,4.97
2023-06-17T12:01:09.463Z,5.22
2023-06-17T12:06:03.710Z,4.90
2023-06-17T12:08:37.755Z,5.25
2023-06-17T12:11:08.803Z,5.05
2023-06-17T12:13:40.066Z,4.70
2023-06-17T12:16:24.180Z,4.75
2023-06-17T12:18:52.952Z,4.95
2023-06-17T12:21:21.875Z,4.60
2023-06-17T12:23:56.142Z,5.05
2023-06-17T12:26:25.052Z,4.97
2023-06-17T12:28:52.003Z,4.63
2023-06-17T12:31:18.974Z,5.07
2023-06-17T12:33:48.756Z,5.00
2023-06-17T12:36:19.472Z,4.88
2023-06-17T12:38:47.070Z,4.75
2023-06-17T12:41:13.837Z,4.78
2023-06-17T12:43:40.671Z,4.68
2023-06-17T12:46:08.158Z,4.80
2023-06-17T12:48:34.852Z,5.20
2023-06-17T12:51:04.988Z,4.80
2023-06-17T12:53:31.601Z,4.93
2023-06-17T12:55:58.314Z,4.90
2023-06-17T12:58:26.180Z,4.50
2023-06-17T13:00:55.986Z,5.00
2023-06-17T13:03:22.693Z,4.88
2023-06-17T13:05:52.123Z,5.05
2023-06-17T13:08:18.949Z,5.07
2023-06-17T13:10:45.496Z,5.47
2023-06-17T13:13:11.999Z,4.82
2023-06-17T13:15:38.982Z,5.35
2023-06-17T13:18:07.872Z,5.07
2023-06-17T13:20:34.418Z,4.70
2023-06-17T13:23:01.254Z,4.95
2023-06-17T13:25:28.017Z,5.35
2023-06-17T13:27:55.218Z,5.22
2023-06-17T13:30:22.002Z,5.45
2023-06-17T13:32:48.915Z,4.70
2023-06-17T13:35:15.483Z,5.10
2023-06-17T13:37:41.920Z,4.65
2023-06-17T13:40:08.877Z,4.53
2023-06-17T13:42:38.658Z,4.80
2023-06-17T13:45:06.153Z,5.00
2023-06-17T13:47:33.568Z,5.07
2023-06-17T13:50:00.045Z,5.20
2023-06-17T13:52:28.857Z,4.85
2023-06-17T13:54:55.479Z,4.70
2023-06-17T13:57:22.987Z,4.60
2023-06-17T13:59:52.482Z,4.90
2023-06-17T14:02:21.995Z,4.95
2023-06-17T14:04:49.760Z,4.90
2023-06-17T14:07:16.441Z,4.82
2023-06-17T14:09:43.410Z,4.55
2023-06-17T14:12:10.364Z,5.57
2023-06-17T14:14:37.403Z,4.45
2023-06-17T14:17:04.142Z,4.47
2023-06-17T14:19:32.367Z,4.95
2023-06-17T14:24:34.734Z,4.95
2023-06-17T14:27:36.854Z,4.65
2023-06-17T14:30:05.317Z,4.88
2023-06-17T14:32:31.922Z,4.80
2023-06-17T14:35:00.029Z,4.15
2023-06-17T14:37:26.598Z,4.43
2023-06-17T14:39:53.052Z,4.65
2023-06-17T14:42:19.453Z,4.57
2023-06-17T14:44:45.893Z,5.15
2023-06-17T14:47:12.691Z,4.70
2023-06-17T14:49:39.105Z,4.75
2023-06-17T14:52:07.085Z,4.90
2023-06-17T14:54:34.408Z,4.68
2023-06-17T14:57:01.285Z,5.43
2023-06-17T14:59:27.814Z,4.65
2023-06-17T15:01:57.021Z,4.97
2023-06-17T15:04:23.481Z,4.70
2023-06-17T15:06:50.004Z,4.82
2023-06-17T15:09:27.618Z,4.63
2023-06-17T15:11:59.151Z,4.75
2023-06-17T15:14:28.237Z,4.65
2023-06-17T15:16:55.330Z,4.78
2023-06-17T15:19:21.803Z,4.95
2023-06-17T15:21:48.982Z,4.95
2023-06-17T15:24:16.252Z,5.03
2023-06-17T15:26:44.280Z,5.03
2023-06-17T15:29:10.902Z,4.90
2023-06-17T15:31:37.800Z,5.05
2023-06-17T15:34:04.413Z,5.35
2023-06-17T15:36:31.430Z,5.00
2023-06-17T15:39:01.183Z,5.03
2023-06-17T15:41:27.670Z,5.53
2023-06-17T15:44:00.373Z,5.18
2023-06-17T15:46:27.278Z,4.97
2023-06-17T15:48:53.680Z,6.40
2023-06-17T15:51:20.072Z,4.75
2023-06-17T15:53:46.512Z,4.60
2023-06-17T15:56:13.140Z,5.13
2023-06-17T15:58:39.605Z,4.78
2023-06-17T16:01:09.141Z,5.55
2023-06-17T16:03:35.830Z,4.65
2023-06-17T16:06:02.936Z,4.20
2023-06-17T16:08:29.467Z,4.80
2023-06-17T16:10:55.892Z,5.00
2023-06-17T16:13:22.888Z,4.68
2023-06-17T16:15:49.547Z,4.55
2023-06-17T16:18:16.207Z,4.75
2023-06-17T16:20:42.718Z,4.53
2023-06-17T16:23:12.421Z,4.90
2023-06-17T16:25:54.405Z,4.75
2023-06-17T16:28:22.230Z,4.63
2023-06-17T16:30:48.805Z,4.85
2023-06-17T16:33:15.318Z,4.40
2023-06-17T16:35:42.080Z,4.28
2023-06-17T16:38:08.868Z,4.68
2023-06-17T16:40:35.473Z,4.95
2023-06-17T16:43:02.244Z,4.70
2023-06-17T16:45:29.068Z,4.75
2023-06-17T16:47:56.556Z,4.32
2023-06-17T16:50:23.345Z,4.75
2023-06-17T16:52:50.270Z,5.10
2023-06-17T16:55:16.904Z,4.90
2023-06-17T16:57:43.323Z,5.05
2023-06-17T17:00:10.481Z,4.68
2023-06-17T17:02:36.911Z,4.82
2023-06-17T17:05:03.532Z,5.35
2023-06-17T17:07:30.262Z,4.82
2023-06-17T17:09:56.695Z,4.63
2023-06-17T17:12:23.286Z,4.80
2023-06-17T17:14:49.720Z,4.82
2023-06-17T17:17:16.352Z,4.28
2023-06-17T17:19:42.766Z,4.75
2023-06-17T17:22:09.124Z,4.82
2023-06-17T17:24:35.734Z,4.60
2023-06-17T17:27:02.288Z,5.32
2023-06-17T17:29:28.769Z,7.22
2023-06-17T17:31:55.382Z,5.90
2023-06-17T17:34:21.906Z,4.93
2023-06-17T17:36:48.331Z,5.03
2023-06-17T17:39:14.747Z,4.85
2023-06-17T17:41:41.274Z,4.85
2023-06-17T17:44:07.708Z,4.68
2023-06-17T17:46:34.418Z,9.05
2023-06-17T17:49:01.013Z,5.10
2023-06-17T17:51:27.735Z,4.78
2023-06-17T17:53:55.710Z,4.78
2023-06-17T17:56:22.288Z,4.35
2023-06-17T17:58:50.791Z,5.00
2023-06-17T18:01:17.522Z,4.80
2023-06-17T18:03:44.296Z,5.05
2023-06-17T18:06:11.301Z,4.40
2023-06-17T18:08:37.788Z,4.80
2023-06-17T18:11:04.440Z,5.18
2023-06-17T18:13:31.091Z,4.72
2023-06-17T18:15:57.572Z,5.18
2023-06-17T18:18:26.248Z,5.22
2023-06-17T18:20:52.909Z,5.30
2023-06-17T18:25:48.569Z,5.18
2023-06-17T18:28:15.331Z,5.28
2023-06-17T18:30:41.890Z,5.43
2023-06-17T18:33:08.709Z,5.30
2023-06-17T18:35:35.532Z,5.30
2023-06-17T18:38:02.379Z,5.22
2023-06-17T18:40:29.042Z,5.25
2023-06-17T18:42:55.396Z,6.25
2023-06-17T18:45:22.205Z,5.80
2023-06-17T18:47:48.952Z,5.55
2023-06-17T18:50:15.402Z,5.72
2023-06-17T18:52:41.819Z,5.57
2023-06-17T18:55:08.917Z,6.22
2023-06-17T18:57:36.184Z,5.50
2023-06-17T19:00:02.635Z,5.32
2023-06-17T19:02:31.031Z,5.57
2023-06-17T19:04:57.567Z,6.28
2023-06-17T19:07:24.085Z,6.93
2023-06-17T19:09:51.325Z,6.15
2023-06-17T19:12:17.754Z,5.68
2023-06-17T19:14:44.245Z,5.95
2023-06-17T19:17:11.057Z,5.75
2023-06-17T19:19:37.440Z,6.18
2023-06-17T19:22:04.089Z,8.80
2023-06-17T19:24:30.527Z,6.38
2023-06-17T19:26:57.197Z,6.32
2023-06-17T19:29:23.597Z,7.82
2023-06-17T19:31:50.038Z,6.60
2023-06-17T19:34:17.377Z,6.07
2023-06-17T19:36:43.774Z,5.68
2023-06-17T19:39:10.424Z,6.38
2023-06-17T19:41:36.916Z,6.15
2023-06-17T19:44:05.878Z,6.53
2023-06-17T19:46:32.346Z,6.55
2023-06-17T19:48:58.932Z,6.70
2023-06-17T19:51:25.484Z,6.70
2023-06-17T19:53:54.413Z,6.15
2023-06-17T19:56:21.672Z,7.18
2023-06-17T19:58:48.250Z,6.53
2023-06-17T20:01:14.677Z,6.47
2023-06-17T20:03:41.688Z,6.65
2023-06-17T20:06:08.317Z,6.20
2023-06-17T20:08:34.732Z,6.38
2023-06-17T20:11:01.300Z,6.63
2023-06-17T20:13:27.718Z,6.60
2023-06-17T20:15:54.300Z,6.68
2023-06-17T20:18:20.887Z,6.53
2023-06-17T20:20:47.320Z,6.55
2023-06-17T20:23:13.923Z,6.38
2023-06-17T20:25:40.670Z,6.28
2023-06-17T20:28:07.206Z,6.50
2023-06-17T20:30:33.642Z,6.38
2023-06-17T20:33:00.124Z,6.43
2023-06-17T20:35:26.712Z,6.85
2023-06-17T20:37:56.078Z,6.88
2023-06-17T20:40:22.877Z,7.63
2023-06-17T20:42:51.048Z,7.53
2023-06-17T20:45:18.029Z,7.85
2023-06-17T20:47:44.602Z,7.65
2023-06-17T20:50:12.687Z,8.45
2023-06-17T20:52:39.079Z,8.30
2023-06-17T20:55:06.059Z,8.23
2023-06-17T20:57:36.573Z,9.35
2023-06-17T21:00:03.477Z,7.47
2023-06-17T21:02:29.961Z,8.23
2023-06-17T21:04:57.022Z,8.25
2023-06-17T21:07:25.219Z,8.73
2023-06-17T21:09:52.118Z,8.32
2023-06-17T21:12:21.602Z,7.75
2023-06-17T21:14:48.371Z,7.82
2023-06-17T21:17:14.791Z,7.90
2023-06-17T21:19:41.252Z,8.38
2023-06-17T21:22:07.903Z,8.48
2023-06-17T21:24:34.357Z,8.00
2023-06-17T21:27:01.026Z,9.57
2023-06-17T21:29:27.506Z,9.15
2023-06-17T21:31:53.876Z,9.23
2023-06-17T21:34:20.403Z,10.05
2023-06-17T21:36:46.833Z,8.60
2023-06-17T21:39:13.521Z,8.68
2023-06-17T21:41:39.894Z,8.85
2023-06-17T21:44:06.336Z,8.50
2023-06-17T21:46:34.264Z,8.32
2023-06-17T21:49:00.817Z,8.52
2023-06-17T21:51:27.181Z,8.25
2023-06-17T21:53:53.591Z,9.00
2023-06-17T21:56:20.718Z,8.18
2023-06-17T21:58:47.261Z,8.93
2023-06-17T22:01:13.810Z,8.63
2023-06-17T22:03:43.036Z,8.63
2023-06-17T22:06:09.610Z,8.85
2023-06-17T22:08:42.780Z,9.52
2023-06-17T22:11:11.143Z,9.38
2023-06-17T22:13:37.525Z,9.52
2023-06-17T22:16:04.800Z,9.60
2023-06-17T22:18:31.889Z,8.68
2023-06-17T22:20:58.291Z,9.13
2023-06-17T22:23:24.660Z,9.73
2023-06-17T22:25:51.104Z,9.82
2023-06-17T22:28:18.922Z,8.77
2023-06-17T22:30:45.475Z,9.85
2023-06-17T22:33:11.890Z,9.15
2023-06-17T22:35:38.405Z,9.27
2023-06-17T22:38:04.867Z,9.43
2023-06-17T22:40:31.302Z,10.27
2023-06-17T22:42:57.666Z,9.35
2023-06-17T22:45:24.024Z,9.63
2023-06-17T22:47:50.518Z,9.70
2023-06-17T22:50:17.201Z,8.77
2023-06-17T22:52:43.638Z,9.52
2023-06-17T22:55:10.230Z,9.32
2023-06-17T22:57:39.041Z,9.10
2023-06-17T23:02:32.554Z,8.48
2023-06-17T23:05:01.661Z,8.23
2023-06-17T23:07:28.127Z,8.10
2023-06-17T23:09:56.696Z,9.20
2023-06-17T23:12:23.230Z,8.98
2023-06-17T23:14:49.732Z,9.07
2023-06-17T23:17:16.305Z,8.85
2023-06-17T23:19:44.181Z,9.43
2023-06-17T23:22:11.102Z,9.73
2023-06-17T23:24:38.104Z,9.15
2023-06-17T23:27:06.950Z,8.70
2023-06-17T23:29:33.797Z,8.65
2023-06-17T23:32:00.352Z,8.35
2023-06-17T23:34:26.767Z,8.52
2023-06-17T23:36:55.579Z,8.48
2023-06-17T23:39:21.975Z,8.38
2023-06-17T23:41:48.514Z,8.88
2023-06-17T23:44:15.451Z,8.40
2023-06-17T23:46:42.761Z,8.32
2023-06-17T23:49:10.813Z,8.80
2023-06-17T23:51:38.513Z,8.25
2023-06-17T23:54:05.002Z,8.52
2023-06-17T23:56:32.329Z,8.82
2023-06-17T23:58:58.784Z,10.18
